This is the latest recevied weather packets stored in our database for station/object CE1RLP-31. If no packets are shown the sender has not sent any weather packets the latest 10 day(s).
| Time | Temp. | Humidity | Pressure | Rain* | Wind** | Luminosity | Snow |
|---|---|---|---|---|---|---|---|
| 1777363648 | 2.22° C | 25% | 1097.9 hPa | - | - | - | - |
| 1777362746 | -2.22° C | 25% | 1093.1 hPa | - | - | - | - |
| 1777361846 | 2.78° C | 22% | 1098 hPa | - | - | - | - |
| 1777360946 | -7.22° C | 23% | 1087.6 hPa | - | - | - | - |
| 1777360046 | 2.78° C | 23% | 1099.3 hPa | - | - | - | - |
| 1777358246 | 3.33° C | 21% | 1098.2 hPa | - | - | - | - |
| 1777357346 | 3.33° C | 21% | 1098.3 hPa | - | - | - | - |
| 1777356446 | 3.33° C | 20% | 1098.3 hPa | - | - | - | - |
| 1777354646 | 3.33° C | 20% | 1098.4 hPa | - | - | - | - |
| 1777353746 | 3.89° C | 20% | 1098.6 hPa | - | - | - | - |
| 1777352845 | 3.89° C | 19% | 1098.7 hPa | - | - | - | - |
| 1777351945 | 3.89° C | 19% | 1098.8 hPa | - | - | - | - |
| 1777351045 | 4.44° C | 19% | 1098.9 hPa | - | - | - | - |
| 1777350145 | 4.44° C | 18% | 1098.9 hPa | - | - | - | - |
| 1777349245 | 4.44° C | 19% | 1099.1 hPa | - | - | - | - |
| 1777348347 | 4.44° C | 18% | 1099 hPa | - | - | - | - |
| 1777347446 | 5° C | 17% | 1099.2 hPa | - | - | - | - |
| 1777345646 | 5° C | 16% | 1099.4 hPa | - | - | - | - |
| 1777344746 | 5° C | 16% | 1099.2 hPa | - | - | - | - |
| 1777343846 | 5.56° C | 15% | 1099.2 hPa | - | - | - | - |
| 1777342046 | 5.56° C | 15% | 1099.3 hPa | - | - | - | - |
| 1777340246 | 6.11° C | 13% | 1099.4 hPa | - | - | - | - |
| 1777339346 | 6.11° C | 13% | 1099.5 hPa | - | - | - | - |
| 1777336645 | 6.11° C | 13% | 1099.3 hPa | - | - | - | - |
| 1777311444 | 15° C | 13% | 1099.6 hPa | - | - | - | - |
* Rain since midnight (hover to see other rain measurements)
** Current wind speed in m/s (hover to see current wind gust speed)